Sunday, October 22, 2017, 8:29 PM EDT
Back to Local

KACK, Nantucket Memorial Airport

Location: Nantucket, MA, United States Lat: 41.25
Local Time: 8:29 PM EDT ( 0:29 GMT) Lon: -70.067
Time Zone: US/Eastern Elev: 49 ft

Show me the last for .
Show Coded

Time T Td Feel RH Dir Speed Gust Alt SLP Vis Weather Sky Remarks
2017-10-22 19:53 55 55 - 100 160° 7 - 30.41 30.41 10 CLR 6-hr Min Temp (8pm): 55.0°F
6-hr Max Temp (8pm): 66.9°F
2017-10-22 18:53 56 56 - 100 190° 6 - 30.41 30.40 10 CLR None
2017-10-22 17:53 59 59 - 100 190° 6 - 30.40 30.40 10 CLR None
2017-10-22 16:53 63 62 - 96 210° 6 - 30.40 30.40 10 CLR None
2017-10-22 15:53 64 62 - 93 210° 7 - 30.39 30.39 10 CLR None
2017-10-22 14:53 65 62 - 90 220° 10 - 30.39 30.39 10 CLR None
2017-10-22 13:53 66 62 - 87 230° 9 - 30.40 30.40 10 CLR 6-hr Min Temp (2pm): 59.0°F
6-hr Max Temp (2pm): 66.0°F
2017-10-22 12:53 66 62 - 87 220° 9 - 30.40 30.40 10 CLR None
2017-10-22 11:53 65 63 - 93 220° 10 - 30.41 30.40 10 CLR None
2017-10-22 10:53 65 63 - 93 220° 9 - 30.42 30.41 10 CLR None
2017-10-22 09:53 64 62 - 93 230° 8 - 30.42 30.41 10 CLR None
2017-10-22 08:53 62 62 - 100 220° 8 - 30.41 30.41 10 CLR None
2017-10-22 07:53 59 59 - 100 210° 6 - 30.40 30.40 10 CLR 6-hr Min Temp (8am): 55.9°F
6-hr Max Temp (8am): 60.1°F
2017-10-22 06:53 57 57 - 100 220° 7 - 30.38 30.38 10 CLR None
2017-10-22 05:53 56 56 - 100 230° 6 - 30.37 30.36 10 CLR None
2017-10-22 04:53 57 57 - 100 230° 8 - 30.36 30.36 10 CLR None
2017-10-22 03:53 58 58 - 100 220° 7 - 30.35 30.35 10 CLR None
2017-10-22 02:53 59 58 - 96 220° 8 - 30.35 30.35 10 CLR None
2017-10-22 01:53 59 58 - 96 220° 8 - 30.35 30.35 10 CLR 6-hr Min Temp (2am): 57.9°F
6-hr Max Temp (2am): 60.1°F
2017-10-22 00:53 60 58 - 92 210° 9 - 30.36 30.36 10 CLR 24-hr Min Temp (1am): 46.9°F
24-hr Max Temp (1am): 64.9°F
2017-10-21 23:53 60 58 - 92 220° 8 - 30.36 30.36 10 CLR None
2017-10-21 22:53 60 58 - 92 210° 9 - 30.36 30.36 10 CLR None
2017-10-21 21:53 60 58 - 92 220° 9 - 30.36 30.35 10 CLR None
2017-10-21 20:53 60 57 - 89 210° 9 - 30.35 30.35 10 CLR None

Support USWX by starting your Amazon purchase here.